Terminal Aerodrome Forecast
Issued by NWS Mt. Holly, NJ

Home | Current Version | Previous Version | Text Only | Print | Product List | Glossary On
Versions: 1 2 3 4 5 6 7 8 9 10 11 12 13 14 15 16 17 18 19
000
FTUS41 KPHI 021100
TAFTTN
TAF
KTTN 021120Z 0212/0312 04005KT P6SM OVC015
     FM021400 04007KT P6SM OVC025
     FM021700 06008KT P6SM BKN035
     FM022300 07005KT P6SM SCT040
     FM030700 07003KT 6SM BR FEW005 BKN015=

USA.gov is the U.S. government's official web portal to all federal, state and local government web resources and services.